sensor_id;sensor_type;location;lat;lon;timestamp;P1;durP1;ratioP1;P2;durP2;ratioP2
6027;SDS011;3042;43.194;27.646;2023-04-24T00:00:03;49.93;;;36.20;;
6027;SDS011;3042;43.194;27.646;2023-04-24T00:02:31;54.70;;;38.93;;
6027;SDS011;3042;43.194;27.646;2023-04-24T00:04:59;70.23;;;37.90;;
6027;SDS011;3042;43.194;27.646;2023-04-24T00:07:29;54.70;;;39.03;;
6027;SDS011;3042;43.194;27.646;2023-04-24T00:09:56;54.63;;;37.73;;
6027;SDS011;3042;43.194;27.646;2023-04-24T00:12:24;39.33;;;35.30;;
6027;SDS011;3042;43.194;27.646;2023-04-24T00:14:52;46.27;;;37.20;;
6027;SDS011;3042;43.194;27.646;2023-04-24T00:17:19;42.00;;;35.23;;
6027;SDS011;3042;43.194;27.646;2023-04-24T00:19:46;38.70;;;34.70;;
6027;SDS011;3042;43.194;27.646;2023-04-24T00:22:13;39.43;;;35.93;;
6027;SDS011;3042;43.194;27.646;2023-04-24T00:24:42;47.07;;;39.33;;
6027;SDS011;3042;43.194;27.646;2023-04-24T00:27:09;44.30;;;37.47;;
6027;SDS011;3042;43.194;27.646;2023-04-24T00:29:36;45.13;;;40.17;;
6027;SDS011;3042;43.194;27.646;2023-04-24T00:32:04;43.87;;;39.57;;
6027;SDS011;3042;43.194;27.646;2023-04-24T00:34:31;46.97;;;42.40;;
6027;SDS011;3042;43.194;27.646;2023-04-24T00:36:58;49.03;;;43.67;;
6027;SDS011;3042;43.194;27.646;2023-04-24T00:39:25;41.97;;;37.50;;
6027;SDS011;3042;43.194;27.646;2023-04-24T00:41:54;53.53;;;39.30;;
6027;SDS011;3042;43.194;27.646;2023-04-24T00:44:22;44.30;;;39.67;;
6027;SDS011;3042;43.194;27.646;2023-04-24T00:46:50;49.87;;;40.00;;
6027;SDS011;3042;43.194;27.646;2023-04-24T00:49:20;46.93;;;35.20;;
6027;SDS011;3042;43.194;27.646;2023-04-24T00:51:47;68.83;;;41.20;;
6027;SDS011;3042;43.194;27.646;2023-04-24T00:54:16;82.47;;;47.70;;
6027;SDS011;3042;43.194;27.646;2023-04-24T00:56:43;118.53;;;46.13;;
6027;SDS011;3042;43.194;27.646;2023-04-24T00:59:12;82.67;;;39.47;;
6027;SDS011;3042;43.194;27.646;2023-04-24T01:01:42;68.53;;;40.40;;
6027;SDS011;3042;43.194;27.646;2023-04-24T01:04:11;41.63;;;36.77;;
6027;SDS011;3042;43.194;27.646;2023-04-24T01:06:39;52.10;;;44.67;;
6027;SDS011;3042;43.194;27.646;2023-04-24T01:09:06;44.00;;;36.90;;
6027;SDS011;3042;43.194;27.646;2023-04-24T01:11:34;41.30;;;36.80;;
6027;SDS011;3042;43.194;27.646;2023-04-24T01:14:02;41.60;;;37.63;;
6027;SDS011;3042;43.194;27.646;2023-04-24T01:16:31;49.47;;;37.70;;
6027;SDS011;3042;43.194;27.646;2023-04-24T01:18:58;59.67;;;39.60;;
6027;SDS011;3042;43.194;27.646;2023-04-24T01:21:26;61.03;;;44.03;;
6027;SDS011;3042;43.194;27.646;2023-04-24T01:23:58;54.63;;;43.20;;
6027;SDS011;3042;43.194;27.646;2023-04-24T01:26:25;106.70;;;54.37;;
6027;SDS011;3042;43.194;27.646;2023-04-24T01:28:52;76.70;;;44.67;;
6027;SDS011;3042;43.194;27.646;2023-04-24T01:31:19;114.90;;;47.03;;
6027;SDS011;3042;43.194;27.646;2023-04-24T01:33:47;51.83;;;46.33;;
6027;SDS011;3042;43.194;27.646;2023-04-24T01:36:14;62.57;;;46.40;;
6027;SDS011;3042;43.194;27.646;2023-04-24T01:38:43;54.07;;;47.50;;
6027;SDS011;3042;43.194;27.646;2023-04-24T01:41:12;43.63;;;37.50;;
6027;SDS011;3042;43.194;27.646;2023-04-24T01:43:39;52.93;;;43.93;;
6027;SDS011;3042;43.194;27.646;2023-04-24T01:46:06;50.50;;;40.13;;
6027;SDS011;3042;43.194;27.646;2023-04-24T01:48:34;44.90;;;37.10;;
6027;SDS011;3042;43.194;27.646;2023-04-24T01:51:02;63.60;;;49.97;;
6027;SDS011;3042;43.194;27.646;2023-04-24T01:53:29;60.53;;;47.60;;
6027;SDS011;3042;43.194;27.646;2023-04-24T01:55:56;43.63;;;36.80;;
6027;SDS011;3042;43.194;27.646;2023-04-24T01:58:25;44.17;;;39.40;;
6027;SDS011;3042;43.194;27.646;2023-04-24T02:00:55;79.53;;;52.03;;
6027;SDS011;3042;43.194;27.646;2023-04-24T02:03:24;52.97;;;45.20;;
6027;SDS011;3042;43.194;27.646;2023-04-24T02:05:51;44.87;;;37.60;;
6027;SDS011;3042;43.194;27.646;2023-04-24T02:08:19;58.70;;;44.37;;
6027;SDS011;3042;43.194;27.646;2023-04-24T02:10:46;66.00;;;47.67;;
6027;SDS011;3042;43.194;27.646;2023-04-24T02:13:13;83.23;;;47.63;;
6027;SDS011;3042;43.194;27.646;2023-04-24T02:15:41;48.37;;;36.60;;
6027;SDS011;3042;43.194;27.646;2023-04-24T02:18:09;49.07;;;39.20;;
6027;SDS011;3042;43.194;27.646;2023-04-24T02:20:37;41.27;;;37.10;;
6027;SDS011;3042;43.194;27.646;2023-04-24T02:23:05;45.33;;;40.17;;
6027;SDS011;3042;43.194;27.646;2023-04-24T02:25:33;42.33;;;36.10;;
6027;SDS011;3042;43.194;27.646;2023-04-24T02:28:00;58.30;;;51.40;;
6027;SDS011;3042;43.194;27.646;2023-04-24T02:30:28;66.20;;;48.40;;
6027;SDS011;3042;43.194;27.646;2023-04-24T02:32:57;64.90;;;46.93;;
6027;SDS011;3042;43.194;27.646;2023-04-24T02:35:24;58.80;;;53.00;;
6027;SDS011;3042;43.194;27.646;2023-04-24T02:37:51;59.27;;;40.80;;
6027;SDS011;3042;43.194;27.646;2023-04-24T02:40:18;52.60;;;47.10;;
6027;SDS011;3042;43.194;27.646;2023-04-24T02:42:45;40.17;;;35.87;;
6027;SDS011;3042;43.194;27.646;2023-04-24T02:45:13;48.17;;;42.23;;
6027;SDS011;3042;43.194;27.646;2023-04-24T02:47:40;46.43;;;39.60;;
6027;SDS011;3042;43.194;27.646;2023-04-24T02:50:08;46.00;;;41.07;;
6027;SDS011;3042;43.194;27.646;2023-04-24T02:52:36;45.03;;;40.10;;
6027;SDS011;3042;43.194;27.646;2023-04-24T02:55:03;42.20;;;37.70;;
6027;SDS011;3042;43.194;27.646;2023-04-24T02:57:31;47.93;;;38.53;;
6027;SDS011;3042;43.194;27.646;2023-04-24T02:59:58;40.60;;;36.50;;
6027;SDS011;3042;43.194;27.646;2023-04-24T03:02:25;42.73;;;36.53;;
6027;SDS011;3042;43.194;27.646;2023-04-24T03:04:52;41.50;;;37.20;;
6027;SDS011;3042;43.194;27.646;2023-04-24T03:07:21;38.03;;;34.40;;
6027;SDS011;3042;43.194;27.646;2023-04-24T03:09:49;52.57;;;39.20;;
6027;SDS011;3042;43.194;27.646;2023-04-24T03:12:16;42.60;;;38.00;;
6027;SDS011;3042;43.194;27.646;2023-04-24T03:14:43;45.57;;;40.77;;
6027;SDS011;3042;43.194;27.646;2023-04-24T03:17:10;50.77;;;40.20;;
6027;SDS011;3042;43.194;27.646;2023-04-24T03:19:37;52.97;;;37.50;;
6027;SDS011;3042;43.194;27.646;2023-04-24T03:22:04;44.50;;;39.20;;
6027;SDS011;3042;43.194;27.646;2023-04-24T03:24:33;47.13;;;39.53;;
6027;SDS011;3042;43.194;27.646;2023-04-24T03:27:00;57.03;;;40.47;;
6027;SDS011;3042;43.194;27.646;2023-04-24T03:29:27;46.17;;;41.30;;
6027;SDS011;3042;43.194;27.646;2023-04-24T03:31:54;46.20;;;39.00;;
6027;SDS011;3042;43.194;27.646;2023-04-24T03:34:21;43.60;;;37.70;;
6027;SDS011;3042;43.194;27.646;2023-04-24T03:36:49;38.80;;;34.97;;
6027;SDS011;3042;43.194;27.646;2023-04-24T03:39:16;37.87;;;34.37;;
6027;SDS011;3042;43.194;27.646;2023-04-24T03:41:44;42.67;;;32.90;;
6027;SDS011;3042;43.194;27.646;2023-04-24T03:44:11;37.20;;;33.50;;
6027;SDS011;3042;43.194;27.646;2023-04-24T03:46:38;39.00;;;34.60;;
6027;SDS011;3042;43.194;27.646;2023-04-24T03:49:05;39.73;;;34.33;;
6027;SDS011;3042;43.194;27.646;2023-04-24T03:51:33;37.37;;;33.37;;
6027;SDS011;3042;43.194;27.646;2023-04-24T03:54:00;38.70;;;34.50;;
6027;SDS011;3042;43.194;27.646;2023-04-24T03:56:28;36.63;;;32.63;;
6027;SDS011;3042;43.194;27.646;2023-04-24T03:58:56;38.57;;;34.70;;
6027;SDS011;3042;43.194;27.646;2023-04-24T04:01:24;34.83;;;31.30;;
6027;SDS011;3042;43.194;27.646;2023-04-24T04:03:51;35.27;;;29.90;;
6027;SDS011;3042;43.194;27.646;2023-04-24T04:06:18;38.17;;;32.40;;
6027;SDS011;3042;43.194;27.646;2023-04-24T04:08:46;37.97;;;33.77;;
6027;SDS011;3042;43.194;27.646;2023-04-24T04:11:13;37.83;;;33.37;;
6027;SDS011;3042;43.194;27.646;2023-04-24T04:13:40;39.47;;;34.73;;
6027;SDS011;3042;43.194;27.646;2023-04-24T04:16:09;37.80;;;34.00;;
6027;SDS011;3042;43.194;27.646;2023-04-24T04:18:36;46.17;;;35.43;;
6027;SDS011;3042;43.194;27.646;2023-04-24T04:21:04;39.63;;;35.27;;
6027;SDS011;3042;43.194;27.646;2023-04-24T04:23:31;97.50;;;37.37;;
6027;SDS011;3042;43.194;27.646;2023-04-24T04:26:02;38.37;;;32.93;;
6027;SDS011;3042;43.194;27.646;2023-04-24T04:28:31;105.47;;;36.43;;
6027;SDS011;3042;43.194;27.646;2023-04-24T04:30:59;31.20;;;28.43;;
6027;SDS011;3042;43.194;27.646;2023-04-24T04:33:27;37.23;;;28.60;;
6027;SDS011;3042;43.194;27.646;2023-04-24T04:35:54;39.97;;;28.20;;
6027;SDS011;3042;43.194;27.646;2023-04-24T04:38:22;40.33;;;27.77;;
6027;SDS011;3042;43.194;27.646;2023-04-24T04:40:51;51.80;;;31.47;;
6027;SDS011;3042;43.194;27.646;2023-04-24T04:43:19;70.70;;;32.83;;
6027;SDS011;3042;43.194;27.646;2023-04-24T04:45:46;56.43;;;31.03;;
6027;SDS011;3042;43.194;27.646;2023-04-24T04:48:13;36.90;;;27.03;;
6027;SDS011;3042;43.194;27.646;2023-04-24T04:50:44;51.30;;;28.37;;
6027;SDS011;3042;43.194;27.646;2023-04-24T04:53:11;31.53;;;27.70;;
6027;SDS011;3042;43.194;27.646;2023-04-24T04:55:38;36.83;;;28.07;;
6027;SDS011;3042;43.194;27.646;2023-04-24T04:58:05;38.83;;;31.30;;
6027;SDS011;3042;43.194;27.646;2023-04-24T05:00:33;81.77;;;30.77;;
6027;SDS011;3042;43.194;27.646;2023-04-24T05:03:01;40.23;;;31.40;;
6027;SDS011;3042;43.194;27.646;2023-04-24T05:05:28;70.53;;;31.10;;
6027;SDS011;3042;43.194;27.646;2023-04-24T05:07:57;117.80;;;39.90;;
6027;SDS011;3042;43.194;27.646;2023-04-24T05:10:24;187.23;;;44.73;;
6027;SDS011;3042;43.194;27.646;2023-04-24T05:12:51;40.30;;;29.00;;
6027;SDS011;3042;43.194;27.646;2023-04-24T05:15:18;34.03;;;28.63;;
6027;SDS011;3042;43.194;27.646;2023-04-24T05:17:45;33.90;;;26.90;;
6027;SDS011;3042;43.194;27.646;2023-04-24T05:20:19;32.90;;;29.20;;
6027;SDS011;3042;43.194;27.646;2023-04-24T05:23:04;71.57;;;33.90;;
6027;SDS011;3042;43.194;27.646;2023-04-24T05:25:31;32.57;;;29.30;;
6027;SDS011;3042;43.194;27.646;2023-04-24T05:28:00;91.70;;;34.13;;
6027;SDS011;3042;43.194;27.646;2023-04-24T05:30:27;35.13;;;29.90;;
6027;SDS011;3042;43.194;27.646;2023-04-24T05:32:55;88.13;;;33.23;;
6027;SDS011;3042;43.194;27.646;2023-04-24T05:35:22;57.83;;;29.70;;
6027;SDS011;3042;43.194;27.646;2023-04-24T05:37:49;41.73;;;29.10;;
6027;SDS011;3042;43.194;27.646;2023-04-24T05:40:17;88.87;;;34.00;;
6027;SDS011;3042;43.194;27.646;2023-04-24T05:42:45;71.57;;;30.67;;
6027;SDS011;3042;43.194;27.646;2023-04-24T05:45:12;37.00;;;28.17;;
6027;SDS011;3042;43.194;27.646;2023-04-24T05:47:42;52.53;;;31.37;;
6027;SDS011;3042;43.194;27.646;2023-04-24T05:50:10;44.33;;;30.73;;
6027;SDS011;3042;43.194;27.646;2023-04-24T05:52:37;37.90;;;26.57;;
6027;SDS011;3042;43.194;27.646;2023-04-24T05:55:04;38.73;;;26.57;;
6027;SDS011;3042;43.194;27.646;2023-04-24T05:57:34;52.53;;;27.77;;
6027;SDS011;3042;43.194;27.646;2023-04-24T06:00:01;37.27;;;27.33;;
6027;SDS011;3042;43.194;27.646;2023-04-24T06:02:30;72.90;;;33.47;;
6027;SDS011;3042;43.194;27.646;2023-04-24T06:04:58;53.10;;;26.63;;
6027;SDS011;3042;43.194;27.646;2023-04-24T06:07:29;34.93;;;24.50;;
6027;SDS011;3042;43.194;27.646;2023-04-24T06:09:57;38.17;;;24.40;;
6027;SDS011;3042;43.194;27.646;2023-04-24T06:12:24;24.83;;;22.30;;
6027;SDS011;3042;43.194;27.646;2023-04-24T06:14:54;67.87;;;27.50;;
6027;SDS011;3042;43.194;27.646;2023-04-24T06:17:21;137.60;;;32.50;;
6027;SDS011;3042;43.194;27.646;2023-04-24T06:19:49;27.17;;;24.30;;
6027;SDS011;3042;43.194;27.646;2023-04-24T06:22:16;168.90;;;32.67;;
6027;SDS011;3042;43.194;27.646;2023-04-24T06:24:43;27.97;;;24.50;;
6027;SDS011;3042;43.194;27.646;2023-04-24T06:27:10;126.47;;;32.00;;
6027;SDS011;3042;43.194;27.646;2023-04-24T06:29:37;25.87;;;21.40;;
6027;SDS011;3042;43.194;27.646;2023-04-24T06:32:06;133.53;;;28.20;;
6027;SDS011;3042;43.194;27.646;2023-04-24T06:34:33;32.33;;;20.63;;
6027;SDS011;3042;43.194;27.646;2023-04-24T06:37:01;58.30;;;24.40;;
6027;SDS011;3042;43.194;27.646;2023-04-24T06:39:28;22.07;;;20.30;;
6027;SDS011;3042;43.194;27.646;2023-04-24T06:41:58;23.43;;;21.43;;
6027;SDS011;3042;43.194;27.646;2023-04-24T06:44:25;36.70;;;22.50;;
6027;SDS011;3042;43.194;27.646;2023-04-24T06:46:52;42.23;;;21.53;;
6027;SDS011;3042;43.194;27.646;2023-04-24T06:49:22;86.27;;;25.60;;
6027;SDS011;3042;43.194;27.646;2023-04-24T06:51:49;35.33;;;23.97;;
6027;SDS011;3042;43.194;27.646;2023-04-24T06:54:16;47.90;;;21.53;;
6027;SDS011;3042;43.194;27.646;2023-04-24T06:56:44;69.47;;;28.10;;
6027;SDS011;3042;43.194;27.646;2023-04-24T06:59:13;25.77;;;23.57;;
6027;SDS011;3042;43.194;27.646;2023-04-24T07:01:40;25.90;;;22.40;;
6027;SDS011;3042;43.194;27.646;2023-04-24T07:04:07;95.57;;;24.60;;
6027;SDS011;3042;43.194;27.646;2023-04-24T07:06:47;31.70;;;19.70;;
6027;SDS011;3042;43.194;27.646;2023-04-24T07:09:16;96.70;;;25.20;;
6027;SDS011;3042;43.194;27.646;2023-04-24T07:11:44;22.30;;;20.10;;
6027;SDS011;3042;43.194;27.646;2023-04-24T07:14:12;34.27;;;21.53;;
6027;SDS011;3042;43.194;27.646;2023-04-24T07:16:40;22.77;;;20.50;;
6027;SDS011;3042;43.194;27.646;2023-04-24T07:19:08;23.83;;;19.63;;
6027;SDS011;3042;43.194;27.646;2023-04-24T07:21:35;33.07;;;20.60;;
6027;SDS011;3042;43.194;27.646;2023-04-24T07:24:04;27.20;;;24.37;;
6027;SDS011;3042;43.194;27.646;2023-04-24T07:26:34;157.67;;;30.57;;
6027;SDS011;3042;43.194;27.646;2023-04-24T07:29:01;22.97;;;20.77;;
6027;SDS011;3042;43.194;27.646;2023-04-24T07:31:31;36.80;;;20.50;;
6027;SDS011;3042;43.194;27.646;2023-04-24T07:33:58;23.00;;;20.20;;
6027;SDS011;3042;43.194;27.646;2023-04-24T07:36:30;80.53;;;23.53;;
6027;SDS011;3042;43.194;27.646;2023-04-24T07:39:01;27.53;;;22.90;;
6027;SDS011;3042;43.194;27.646;2023-04-24T07:41:29;34.07;;;21.57;;
6027;SDS011;3042;43.194;27.646;2023-04-24T07:43:57;39.87;;;25.07;;
6027;SDS011;3042;43.194;27.646;2023-04-24T07:46:30;23.63;;;21.63;;
6027;SDS011;3042;43.194;27.646;2023-04-24T07:49:01;20.83;;;19.33;;
6027;SDS011;3042;43.194;27.646;2023-04-24T07:51:29;24.43;;;20.17;;
6027;SDS011;3042;43.194;27.646;2023-04-24T07:53:58;28.70;;;23.17;;
6027;SDS011;3042;43.194;27.646;2023-04-24T07:56:26;24.90;;;21.60;;
6027;SDS011;3042;43.194;27.646;2023-04-24T07:58:57;21.37;;;19.37;;
6027;SDS011;3042;43.194;27.646;2023-04-24T08:01:25;35.10;;;20.00;;
6027;SDS011;3042;43.194;27.646;2023-04-24T08:03:52;56.87;;;23.73;;
6027;SDS011;3042;43.194;27.646;2023-04-24T08:06:19;70.27;;;18.93;;
6027;SDS011;3042;43.194;27.646;2023-04-24T08:08:46;48.87;;;21.50;;
6027;SDS011;3042;43.194;27.646;2023-04-24T08:11:13;30.80;;;21.50;;
6027;SDS011;3042;43.194;27.646;2023-04-24T08:13:41;21.73;;;19.37;;
6027;SDS011;3042;43.194;27.646;2023-04-24T08:16:09;25.50;;;18.70;;
6027;SDS011;3042;43.194;27.646;2023-04-24T08:18:36;35.17;;;20.13;;
6027;SDS011;3042;43.194;27.646;2023-04-24T08:21:04;29.40;;;23.30;;
6027;SDS011;3042;43.194;27.646;2023-04-24T08:23:31;31.80;;;19.87;;
6027;SDS011;3042;43.194;27.646;2023-04-24T08:25:58;30.93;;;20.90;;
6027;SDS011;3042;43.194;27.646;2023-04-24T08:28:26;32.93;;;20.13;;
6027;SDS011;3042;43.194;27.646;2023-04-24T08:30:54;44.83;;;19.03;;
6027;SDS011;3042;43.194;27.646;2023-04-24T08:33:22;20.07;;;18.27;;
6027;SDS011;3042;43.194;27.646;2023-04-24T08:35:50;26.40;;;18.97;;
6027;SDS011;3042;43.194;27.646;2023-04-24T08:38:17;20.73;;;18.90;;
6027;SDS011;3042;43.194;27.646;2023-04-24T08:40:44;27.90;;;20.80;;
6027;SDS011;3042;43.194;27.646;2023-04-24T08:43:14;37.23;;;22.87;;
6027;SDS011;3042;43.194;27.646;2023-04-24T08:45:42;20.33;;;19.03;;
6027;SDS011;3042;43.194;27.646;2023-04-24T08:48:10;31.27;;;23.13;;
6027;SDS011;3042;43.194;27.646;2023-04-24T08:50:39;67.40;;;21.80;;
6027;SDS011;3042;43.194;27.646;2023-04-24T08:53:08;41.40;;;19.73;;
6027;SDS011;3042;43.194;27.646;2023-04-24T08:55:35;23.83;;;20.27;;
6027;SDS011;3042;43.194;27.646;2023-04-24T08:58:03;22.50;;;20.30;;
6027;SDS011;3042;43.194;27.646;2023-04-24T09:00:31;24.40;;;20.90;;
6027;SDS011;3042;43.194;27.646;2023-04-24T09:02:59;25.00;;;20.80;;
6027;SDS011;3042;43.194;27.646;2023-04-24T09:05:27;21.67;;;19.87;;
6027;SDS011;3042;43.194;27.646;2023-04-24T09:07:57;22.77;;;20.53;;
6027;SDS011;3042;43.194;27.646;2023-04-24T09:10:26;19.63;;;18.23;;
6027;SDS011;3042;43.194;27.646;2023-04-24T09:12:55;26.00;;;19.83;;
6027;SDS011;3042;43.194;27.646;2023-04-24T09:15:27;23.67;;;21.93;;
6027;SDS011;3042;43.194;27.646;2023-04-24T09:17:54;23.40;;;21.13;;
6027;SDS011;3042;43.194;27.646;2023-04-24T09:20:22;20.23;;;18.43;;
6027;SDS011;3042;43.194;27.646;2023-04-24T09:22:52;20.63;;;18.63;;
6027;SDS011;3042;43.194;27.646;2023-04-24T09:25:22;19.63;;;17.90;;
6027;SDS011;3042;43.194;27.646;2023-04-24T09:27:59;19.80;;;18.10;;
6027;SDS011;3042;43.194;27.646;2023-04-24T09:30:27;35.87;;;18.70;;
6027;SDS011;3042;43.194;27.646;2023-04-24T09:33:09;20.93;;;19.53;;
6027;SDS011;3042;43.194;27.646;2023-04-24T09:35:37;21.67;;;20.27;;
6027;SDS011;3042;43.194;27.646;2023-04-24T09:38:07;18.60;;;17.17;;
6027;SDS011;3042;43.194;27.646;2023-04-24T09:40:35;22.33;;;20.40;;
6027;SDS011;3042;43.194;27.646;2023-04-24T09:43:03;23.33;;;21.50;;
6027;SDS011;3042;43.194;27.646;2023-04-24T09:45:35;18.90;;;17.47;;
6027;SDS011;3042;43.194;27.646;2023-04-24T09:48:02;21.13;;;18.90;;
6027;SDS011;3042;43.194;27.646;2023-04-24T09:50:31;21.40;;;19.50;;
6027;SDS011;3042;43.194;27.646;2023-04-24T09:53:01;23.57;;;20.37;;
6027;SDS011;3042;43.194;27.646;2023-04-24T09:55:30;18.60;;;17.30;;
6027;SDS011;3042;43.194;27.646;2023-04-24T09:58:00;18.77;;;17.37;;
6027;SDS011;3042;43.194;27.646;2023-04-24T10:00:31;18.10;;;17.00;;
6027;SDS011;3042;43.194;27.646;2023-04-24T10:03:00;33.13;;;19.43;;
6027;SDS011;3042;43.194;27.646;2023-04-24T10:05:31;19.53;;;18.33;;
6027;SDS011;3042;43.194;27.646;2023-04-24T10:08:01;34.83;;;23.20;;
6027;SDS011;3042;43.194;27.646;2023-04-24T10:10:29;21.23;;;19.80;;
6027;SDS011;3042;43.194;27.646;2023-04-24T10:13:00;22.03;;;19.83;;
6027;SDS011;3042;43.194;27.646;2023-04-24T10:15:28;19.87;;;18.03;;
6027;SDS011;3042;43.194;27.646;2023-04-24T10:17:57;23.47;;;20.47;;
6027;SDS011;3042;43.194;27.646;2023-04-24T10:20:26;22.57;;;20.83;;
6027;SDS011;3042;43.194;27.646;2023-04-24T10:22:56;26.83;;;19.93;;
6027;SDS011;3042;43.194;27.646;2023-04-24T10:25:25;31.63;;;20.27;;
6027;SDS011;3042;43.194;27.646;2023-04-24T10:27:54;23.97;;;21.73;;
6027;SDS011;3042;43.194;27.646;2023-04-24T10:30:26;19.23;;;17.50;;
6027;SDS011;3042;43.194;27.646;2023-04-24T10:32:55;20.57;;;18.80;;
6027;SDS011;3042;43.194;27.646;2023-04-24T10:35:22;23.77;;;21.63;;
6027;SDS011;3042;43.194;27.646;2023-04-24T10:37:53;20.90;;;18.93;;
6027;SDS011;3042;43.194;27.646;2023-04-24T10:40:25;19.33;;;17.67;;
6027;SDS011;3042;43.194;27.646;2023-04-24T10:42:54;32.93;;;21.13;;
6027;SDS011;3042;43.194;27.646;2023-04-24T10:45:23;24.73;;;20.90;;
6027;SDS011;3042;43.194;27.646;2023-04-24T10:47:58;21.17;;;19.03;;
6027;SDS011;3042;43.194;27.646;2023-04-24T10:50:26;28.97;;;26.63;;
6027;SDS011;3042;43.194;27.646;2023-04-24T10:52:55;21.80;;;19.90;;
6027;SDS011;3042;43.194;27.646;2023-04-24T10:55:41;25.37;;;19.70;;
6027;SDS011;3042;43.194;27.646;2023-04-24T10:58:10;71.80;;;25.20;;
6027;SDS011;3042;43.194;27.646;2023-04-24T11:00:38;24.53;;;22.67;;
6027;SDS011;3042;43.194;27.646;2023-04-24T11:03:21;25.60;;;23.50;;
6027;SDS011;3042;43.194;27.646;2023-04-24T11:05:52;25.60;;;20.10;;
6027;SDS011;3042;43.194;27.646;2023-04-24T11:08:32;20.30;;;17.50;;
6027;SDS011;3042;43.194;27.646;2023-04-24T11:11:08;20.90;;;19.00;;
6027;SDS011;3042;43.194;27.646;2023-04-24T11:16:37;27.23;;;19.73;;
6027;SDS011;3042;43.194;27.646;2023-04-24T11:19:17;20.83;;;18.73;;
6027;SDS011;3042;43.194;27.646;2023-04-24T11:21:46;26.47;;;21.63;;
6027;SDS011;3042;43.194;27.646;2023-04-24T11:27:06;26.47;;;23.70;;
6027;SDS011;3042;43.194;27.646;2023-04-24T11:29:43;46.43;;;26.53;;
6027;SDS011;3042;43.194;27.646;2023-04-24T11:32:15;86.50;;;24.23;;
6027;SDS011;3042;43.194;27.646;2023-04-24T11:34:50;176.10;;;27.13;;
6027;SDS011;3042;43.194;27.646;2023-04-24T11:37:18;46.80;;;19.63;;
6027;SDS011;3042;43.194;27.646;2023-04-24T11:39:46;17.90;;;16.83;;
6027;SDS011;3042;43.194;27.646;2023-04-24T11:42:14;54.73;;;19.13;;
6027;SDS011;3042;43.194;27.646;2023-04-24T11:44:46;22.60;;;19.97;;
6027;SDS011;3042;43.194;27.646;2023-04-24T11:47:19;39.17;;;21.43;;
6027;SDS011;3042;43.194;27.646;2023-04-24T11:50:02;76.07;;;28.37;;
6027;SDS011;3042;43.194;27.646;2023-04-24T11:52:30;28.83;;;26.03;;
6027;SDS011;3042;43.194;27.646;2023-04-24T11:54:58;48.07;;;24.13;;
6027;SDS011;3042;43.194;27.646;2023-04-24T11:57:26;44.60;;;21.07;;
6027;SDS011;3042;43.194;27.646;2023-04-24T11:59:58;64.63;;;21.23;;
6027;SDS011;3042;43.194;27.646;2023-04-24T12:02:26;76.90;;;25.40;;
6027;SDS011;3042;43.194;27.646;2023-04-24T12:04:53;43.77;;;23.13;;
6027;SDS011;3042;43.194;27.646;2023-04-24T12:07:23;163.37;;;29.23;;
6027;SDS011;3042;43.194;27.646;2023-04-24T12:09:54;84.77;;;24.63;;
6027;SDS011;3042;43.194;27.646;2023-04-24T12:12:29;30.33;;;20.53;;
6027;SDS011;3042;43.194;27.646;2023-04-24T12:14:57;28.40;;;24.23;;
6027;SDS011;3042;43.194;27.646;2023-04-24T12:17:25;86.67;;;20.40;;
6027;SDS011;3042;43.194;27.646;2023-04-24T12:19:57;47.13;;;23.27;;
6027;SDS011;3042;43.194;27.646;2023-04-24T12:22:28;39.30;;;24.80;;
6027;SDS011;3042;43.194;27.646;2023-04-24T12:25:09;45.77;;;21.80;;
6027;SDS011;3042;43.194;27.646;2023-04-24T12:27:40;59.00;;;26.03;;
6027;SDS011;3042;43.194;27.646;2023-04-24T12:30:11;28.17;;;25.13;;
6027;SDS011;3042;43.194;27.646;2023-04-24T12:32:41;37.23;;;23.60;;
6027;SDS011;3042;43.194;27.646;2023-04-24T12:35:23;177.47;;;30.17;;
6027;SDS011;3042;43.194;27.646;2023-04-24T12:38:06;30.97;;;23.07;;
6027;SDS011;3042;43.194;27.646;2023-04-24T12:40:33;46.03;;;26.37;;
6027;SDS011;3042;43.194;27.646;2023-04-24T12:43:00;44.30;;;26.20;;
6027;SDS011;3042;43.194;27.646;2023-04-24T12:45:28;79.33;;;24.97;;
6027;SDS011;3042;43.194;27.646;2023-04-24T12:47:55;100.00;;;26.23;;
6027;SDS011;3042;43.194;27.646;2023-04-24T12:50:23;36.60;;;23.70;;
6027;SDS011;3042;43.194;27.646;2023-04-24T12:52:50;31.33;;;25.77;;
6027;SDS011;3042;43.194;27.646;2023-04-24T12:55:19;66.47;;;25.20;;
6027;SDS011;3042;43.194;27.646;2023-04-24T12:57:46;61.40;;;24.20;;
6027;SDS011;3042;43.194;27.646;2023-04-24T13:00:13;62.53;;;24.10;;
6027;SDS011;3042;43.194;27.646;2023-04-24T13:02:41;72.70;;;26.30;;
6027;SDS011;3042;43.194;27.646;2023-04-24T13:05:10;37.53;;;25.33;;
6027;SDS011;3042;43.194;27.646;2023-04-24T13:07:41;50.43;;;25.60;;
6027;SDS011;3042;43.194;27.646;2023-04-24T13:10:09;60.27;;;24.23;;
6027;SDS011;3042;43.194;27.646;2023-04-24T13:12:38;40.90;;;25.27;;
6027;SDS011;3042;43.194;27.646;2023-04-24T13:15:06;46.17;;;25.03;;
6027;SDS011;3042;43.194;27.646;2023-04-24T13:17:33;65.13;;;28.00;;
6027;SDS011;3042;43.194;27.646;2023-04-24T13:20:01;31.23;;;23.77;;
6027;SDS011;3042;43.194;27.646;2023-04-24T13:22:28;46.47;;;23.73;;
6027;SDS011;3042;43.194;27.646;2023-04-24T13:24:56;33.83;;;24.63;;
6027;SDS011;3042;43.194;27.646;2023-04-24T13:27:23;27.43;;;24.90;;
6027;SDS011;3042;43.194;27.646;2023-04-24T13:29:52;50.07;;;20.37;;
6027;SDS011;3042;43.194;27.646;2023-04-24T13:32:19;56.47;;;21.77;;
6027;SDS011;3042;43.194;27.646;2023-04-24T13:34:47;33.67;;;18.93;;
6027;SDS011;3042;43.194;27.646;2023-04-24T13:37:15;30.57;;;18.50;;
6027;SDS011;3042;43.194;27.646;2023-04-24T13:39:43;23.30;;;17.50;;
6027;SDS011;3042;43.194;27.646;2023-04-24T13:42:13;43.37;;;19.63;;
6027;SDS011;3042;43.194;27.646;2023-04-24T13:44:41;27.33;;;17.93;;
6027;SDS011;3042;43.194;27.646;2023-04-24T13:47:09;21.50;;;17.83;;
6027;SDS011;3042;43.194;27.646;2023-04-24T13:49:37;18.57;;;16.90;;
6027;SDS011;3042;43.194;27.646;2023-04-24T13:52:04;23.63;;;21.57;;
6027;SDS011;3042;43.194;27.646;2023-04-24T13:54:32;42.73;;;19.97;;
6027;SDS011;3042;43.194;27.646;2023-04-24T13:56:59;35.90;;;18.60;;
6027;SDS011;3042;43.194;27.646;2023-04-24T13:59:28;18.37;;;17.17;;
6027;SDS011;3042;43.194;27.646;2023-04-24T14:01:55;29.57;;;17.67;;
6027;SDS011;3042;43.194;27.646;2023-04-24T14:04:23;59.40;;;18.93;;
6027;SDS011;3042;43.194;27.646;2023-04-24T14:06:50;24.13;;;16.90;;
6027;SDS011;3042;43.194;27.646;2023-04-24T14:09:17;29.50;;;17.37;;
6027;SDS011;3042;43.194;27.646;2023-04-24T14:11:45;19.00;;;17.37;;
6027;SDS011;3042;43.194;27.646;2023-04-24T14:14:12;18.43;;;16.80;;
6027;SDS011;3042;43.194;27.646;2023-04-24T14:16:39;34.73;;;19.37;;
6027;SDS011;3042;43.194;27.646;2023-04-24T14:19:06;44.80;;;22.93;;
6027;SDS011;3042;43.194;27.646;2023-04-24T14:21:35;32.40;;;20.23;;
6027;SDS011;3042;43.194;27.646;2023-04-24T14:24:03;24.40;;;20.00;;
6027;SDS011;3042;43.194;27.646;2023-04-24T14:26:30;17.47;;;15.67;;
6027;SDS011;3042;43.194;27.646;2023-04-24T14:28:58;23.73;;;17.10;;
6027;SDS011;3042;43.194;27.646;2023-04-24T14:31:25;20.43;;;18.57;;
6027;SDS011;3042;43.194;27.646;2023-04-24T14:33:54;31.23;;;18.00;;
6027;SDS011;3042;43.194;27.646;2023-04-24T14:36:22;24.53;;;18.70;;
6027;SDS011;3042;43.194;27.646;2023-04-24T14:38:52;21.50;;;19.33;;
6027;SDS011;3042;43.194;27.646;2023-04-24T14:41:19;19.03;;;17.53;;
6027;SDS011;3042;43.194;27.646;2023-04-24T14:43:46;48.33;;;32.50;;
6027;SDS011;3042;43.194;27.646;2023-04-24T14:46:13;20.73;;;18.00;;